Latest Coastal Weather Observations for Lord Howe Island

IDN60701

Issued at 1:52 am EST Tuesday 23 April 2024 (issued every 10 minutes, with the page automatically refreshed every 10 minutes)

About coastal observations | Map of coastal stations | Coastal observations for NSW | Marine services | Other Formats
Station Details ID: 200839 Name: LORD HOWE ISLAND AERO Lat: -31.54 Lon: 159.08 Height: 5.0 m
Data from the previous 72 hours. | See also: Recent months at Lord Howe Island

Observations are collected in the New South Wales time zone (Eastern Standard Time) which includes daylight savings in the summer period. Therefore 'Rain since 9am' totals and other values are based on the New South Wales time zone, which may differ from local time.

Date/Time
EST
Wind Sea
Height
m
Swell Vis
km
Cloud Weather Temp
°C
Press
MSL
hPa
Rain since
9am
mm
Dir  Spd
kts
Gust
kts
Height
m
Period
s
Dir
23/01:30am E 15 23 - - - - 10 Partly cloudy - 20.7 1023.6 1.8
23/01:00am E 15 21 - - - - 10 Partly cloudy - 20.6 1023.9 1.8
23/12:30am E 14 19 - - - - 10 Partly cloudy - 20.8 1024.1 1.8
23/12:00am E 13 18 - - - - 10 Partly cloudy - 20.7 1024.2 1.8
 
Date/Time
EST
Wind Sea
Height
m
Swell Vis
km
Cloud Weather Temp
°C
Press
MSL
hPa
Rain since
9am
mm
Dir  Spd
kts
Gust
kts
Height
m
Period
s
Dir
22/11:30pm ESE 11 18 - - - - 10 Mostly clear - 20.8 1024.3 1.8
22/11:00pm E 14 21 - - - - 10 Partly cloudy - 20.7 1024.4 1.8
22/10:30pm E 13 20 - - - - 10 Partly cloudy - 20.7 1024.4 1.8
22/10:00pm E 16 22 - - - - 10 Partly cloudy - 20.9 1024.5 1.8
22/09:30pm E 15 22 - - - - 10 Partly cloudy - 20.7 1024.5 1.8
22/09:01pm E 15 25 - - - - 10 Partly cloudy - 20.4 1024.6 1.8
22/09:00pm E 16 25 - - - - 10 Partly cloudy - 20.3 1024.6 1.8
22/08:51pm E 15 25 - - - - 10 Partly cloudy - 20.8 1024.7 1.8
22/08:30pm E 16 22 - - - - 10 Mostly clear - 20.8 1024.7 1.8
22/08:00pm E 15 24 - - - - 10 Partly cloudy - 20.8 1024.6 1.8
22/07:32pm E 15 25 - - - - 10 Partly cloudy - 20.9 1024.3 1.8
22/07:30pm E 14 21 - - - - 10 Partly cloudy - 20.9 1024.2 1.8
22/07:11pm E 16 27 - - - - 10 Partly cloudy - 20.8 1024.0 1.8
22/07:00pm E 14 21 - - - - 10 Partly cloudy - 20.8 1023.9 1.8
22/06:30pm E 16 26 - - - - 10 Partly cloudy - 20.9 1023.5 1.8
22/06:00pm E 15 26 - - - - 10 Partly cloudy - 20.8 1023.2 1.8
22/05:31pm E 15 26 - - - - 10 Partly cloudy - 20.6 1022.7 1.8
22/05:30pm E 15 24 - - - - 10 Mostly clear - 20.7 1022.7 1.8
22/05:00pm E 15 25 - - - - 10 Partly cloudy - 20.6 1022.3 1.8
22/04:55pm E 15 25 - - - - 10 Partly cloudy - 20.6 1022.4 1.8
22/04:30pm E 15 23 - - - - 10 Partly cloudy - 20.7 1022.3 1.8
22/04:00pm ESE 11 22 - - - - 10 Partly cloudy - 20.8 1022.3 1.8
22/03:30pm E 17 23 - - - - 10 Partly cloudy - 20.5 1022.5 1.8
22/03:00pm E 13 21 - - - - 10 Partly cloudy - 21.0 1022.7 1.8
22/02:30pm E 7 10 - - - - 10 Cloudy Showers 20.1 1022.9 1.8
22/02:00pm E 8 13 - - - - 1 Mostly clear - 19.9 1023.1 1.8
22/01:30pm ESE 13 26 - - - - 10 Partly cloudy - 19.5 1023.4 1.8
22/01:00pm E 12 23 - - - - 10 Partly cloudy - 20.2 1023.2 1.8
22/12:58pm E 11 23 - - - - 10 Partly cloudy - 20.6 1023.1 1.8
22/12:30pm ESE 4 11 - - - - 10 Mostly clear - 18.9 1023.4 1.8
22/12:21pm ESE 9 17 - - - - 10 Partly cloudy - 18.6 1023.7 1.8
22/12:03pm E 15 28 - - - - 6 Partly cloudy Showers 19.9 1023.7 1.2
22/12:00pm E 12 28 - - - - 8 Partly cloudy - 20.1 1023.7 1.2
22/11:30am E 11 16 - - - - 10 Partly cloudy Rain 21.1 1024.1 1.2
22/11:00am ENE 9 14 - - - - 10 Partly cloudy - 20.3 1024.5 1.2
22/10:57am ENE 8 12 - - - - 10 Partly cloudy - 19.9 1024.5 1.2
22/10:36am ESE 10 25 - - - - 5 Partly cloudy Showers 19.9 1024.7 0.0
22/10:30am ESE 12 25 - - - - 8 Mostly clear Drizzle 20.2 1024.7 0.0
22/10:27am E 15 25 - - - - 8 Mostly clear Drizzle 19.9 1024.7 0.0
22/10:00am E 11 19 - - - - 10 Mostly clear - 21.3 1024.5 0.0
22/09:30am ESE 8 16 - - - - 10 Partly cloudy - 20.8 1024.6 0.0
22/09:00am E 17 23 - - - - 10 Mostly clear - 22.2 1024.4 0.0
22/08:30am E 14 22 - - - - 10 Cloudy - 21.7 1024.6 1.2
22/08:06am E 15 26 - - - - 10 Partly cloudy - 20.8 1024.5 1.2
22/08:00am E 14 23 - - - - 10 Mostly clear - 21.0 1024.5 1.2
22/07:30am E 16 23 - - - - 10 Partly cloudy - 21.1 1024.3 1.2
22/07:00am E 12 19 - - - - 10 Partly cloudy - 20.2 1024.2 1.2
22/06:33am E 15 25 - - - - 10 Partly cloudy - 20.2 1023.8 1.2
22/06:30am E 16 25 - - - - 10 Partly cloudy - 20.3 1023.7 1.2
22/06:25am E 13 23 - - - - 10 Partly cloudy - 20.2 1023.5 1.2
22/06:00am SSE 7 16 - - - - 10 - - 19.0 1023.2 1.2
22/05:40am ENE 7 20 - - - - 10 Partly cloudy - 19.3 1023.2 1.2
22/05:30am ESE 5 13 - - - - 10 Cloudy Rain 18.9 1023.1 1.2
22/05:00am ESE 11 20 - - - - 10 Partly cloudy - 19.2 1022.9 1.0
22/04:30am ESE 6 17 - - - - 10 Partly cloudy - 18.7 1022.5 1.0
22/04:10am SE 9 26 - - - - 10 Partly cloudy - 19.7 1022.3 1.0
22/04:00am SE 6 13 - - - - 10 Partly cloudy - 19.9 1022.2 1.0
22/03:30am ESE 7 14 - - - - 10 Partly cloudy - 19.7 1022.1 1.0
22/03:00am ESE 8 17 - - - - 10 Partly cloudy - 19.8 1022.0 1.0
22/02:30am ESE 8 14 - - - - 10 Cloudy - 19.8 1022.1 1.0
22/02:00am ESE 9 22 - - - - 10 Partly cloudy - 19.9 1022.3 1.0
22/01:30am SE 9 22 - - - - 10 Partly cloudy - 20.1 1022.5 1.0
22/01:00am E 9 21 - - - - 10 Partly cloudy - 20.1 1022.7 1.0
22/12:30am ESE 8 19 - - - - 10 Partly cloudy - 19.9 1023.1 1.0
22/12:00am ESE 9 19 - - - - 10 Partly cloudy - 20.0 1023.2 1.0
 
Date/Time
EST
Wind Sea
Height
m
Swell Vis
km
Cloud Weather Temp
°C
Press
MSL
hPa
Rain since
9am
mm
Dir  Spd
kts
Gust
kts
Height
m
Period
s
Dir
21/11:30pm ESE 10 16 - - - - 10 Mostly cloudy - 20.1 1023.4 1.0
21/11:00pm ESE 9 19 - - - - 10 Partly cloudy - 20.0 1023.6 1.0
21/10:30pm ESE 11 22 - - - - 10 Partly cloudy - 20.0 1023.6 1.0
21/10:00pm E 11 17 - - - - 10 Partly cloudy - 19.9 1023.6 1.0
21/09:30pm E 10 19 - - - - 10 Partly cloudy - 20.1 1023.6 1.0
21/09:00pm ESE 10 19 - - - - 10 Partly cloudy - 20.1 1023.4 1.0
21/08:30pm E 13 21 - - - - 10 Cloudy - 20.0 1023.2 1.0
21/08:00pm ESE 11 22 - - - - 10 Partly cloudy - 20.2 1023.0 1.0
21/07:30pm ESE 11 21 - - - - 10 Partly cloudy - 20.2 1022.9 1.0
21/07:00pm ESE 12 24 - - - - 10 Partly cloudy - 20.3 1022.6 1.0
21/06:30pm ESE 12 26 - - - - 10 Cloudy - 20.4 1022.6 1.0
21/06:25pm E 15 26 - - - - 10 Cloudy - 20.4 1022.2 1.0
21/06:00pm ESE 13 23 - - - - 10 Partly cloudy - 20.5 1022.1 1.0
21/05:30pm ESE 12 24 - - - - 10 Cloudy - 20.5 1021.8 1.0
21/05:14pm E 15 25 - - - - 10 Partly cloudy - 20.4 1021.3 1.0
21/05:00pm ESE 13 25 - - - - 10 Cloudy - 20.4 1021.3 1.0
21/04:50pm E 14 27 - - - - 10 Partly cloudy - 20.5 1021.0 1.0
21/04:30pm E 9 19 - - - - 10 Partly cloudy - 20.4 1021.1 1.0
21/04:14pm ESE 13 27 - - - - 10 Partly cloudy - 20.2 1021.1 1.0
21/04:11pm E 11 27 - - - - 10 Partly cloudy - 20.2 1020.8 1.0
21/04:00pm E 12 24 - - - - 10 Partly cloudy - 20.1 1021.3 1.0
21/03:32pm E 13 25 - - - - 10 Partly cloudy - 20.6 1021.0 1.0
21/03:30pm E 11 23 - - - - 10 Partly cloudy - 20.5 1021.1 1.0
21/03:00pm ESE 10 19 - - - - 10 Partly cloudy - 20.2 1021.1 1.0
21/02:30pm SE 7 13 - - - - 10 Cloudy Showers 19.8 1021.2 1.0
21/02:00pm E 9 14 - - - - 7 Partly cloudy - 19.6 1021.7 1.0
21/01:30pm E 15 24 - - - - 10 Partly cloudy - 21.9 1021.7 0.2
21/01:00pm E 13 20 - - - - 10 Partly cloudy - 21.6 1021.7 0.2
21/12:30pm E 14 24 - - - - 10 Partly cloudy - 22.6 1021.2 0.2
21/12:06pm E 15 25 - - - - 10 Partly cloudy - 22.8 1020.8 0.2
21/12:00pm E 14 23 - - - - 10 Partly cloudy - 23.1 1021.2 0.2
21/11:30am E 13 21 - - - - 10 Mostly cloudy - 23.0 1021.2 0.2
21/11:00am SE 10 19 - - - - 10 Partly cloudy - 22.6 1021.7 0.2
21/10:34am E 15 25 - - - - 10 Partly cloudy - 22.8 1021.8 0.2
21/10:30am E 14 25 - - - - 10 Partly cloudy - 22.9 1021.9 0.2
21/10:27am E 15 25 - - - - 10 Partly cloudy - 22.8 1021.9 0.2
21/10:00am E 14 22 - - - - 10 Partly cloudy - 23.1 1021.8 0.2
21/09:30am ESE 10 20 - - - - 10 Partly cloudy - 22.8 1022.1 0.2
21/09:00am ESE 12 22 - - - - 10 Partly cloudy - 22.4 1022.3 0.2
21/08:48am ESE 14 25 - - - - 10 Partly cloudy - 22.6 1022.0 0.2
21/08:30am ESE 12 21 - - - - 10 Partly cloudy - 22.2 1022.1 2.0
21/08:00am ESE 12 25 - - - - 10 Partly cloudy - 21.9 1021.9 2.0
21/07:50am E 13 26 - - - - 10 Partly cloudy - 21.8 1021.8 2.0
21/07:30am ESE 11 19 - - - - 10 Partly cloudy - 21.3 1021.9 2.0
21/07:20am ESE 13 27 - - - - 10 Partly cloudy - 21.6 1021.5 2.0
21/07:00am E 7 13 - - - - 10 Partly cloudy - 20.8 1021.4 2.0
21/06:30am ESE 12 23 - - - - 10 Partly cloudy - 20.8 1021.5 2.0
21/06:00am E 12 21 - - - - 10 Partly cloudy - 20.3 1021.1 2.0
21/05:30am ESE 5 10 - - - - 25 Partly cloudy Fine 20.2 1020.7 2.0
21/05:00am ESE 9 17 - - - - 10 Partly cloudy - 20.5 1020.8 2.0
21/04:30am ESE 10 17 - - - - 10 Partly cloudy - 20.7 1020.3 2.0
21/04:00am SE 7 15 - - - - 10 Partly cloudy - 20.5 1020.1 2.0
21/03:30am ESE 7 15 - - - - 10 Partly cloudy - 20.3 1019.8 2.0
21/03:00am ESE 6 12 - - - - 10 Partly cloudy - 20.4 1020.0 2.0
21/02:30am SE 6 10 - - - - 10 Cloudy - 20.5 1020.2 2.0
21/02:00am ESE 11 18 - - - - 10 Partly cloudy - 20.4 1020.1 2.0
21/01:30am ESE 9 17 - - - - 10 Partly cloudy - 20.7 1020.4 2.0
21/01:00am E 8 14 - - - - 10 Partly cloudy - 20.5 1020.5 2.0
21/12:30am SE 7 16 - - - - 10 Partly cloudy - 20.5 1020.5 2.0
21/12:00am ESE 8 13 - - - - 10 Partly cloudy - 20.6 1020.6 2.0
 
Date/Time
EST
Wind Sea
Height
m
Swell Vis
km
Cloud Weather Temp
°C
Press
MSL
hPa
Rain since
9am
mm
Dir  Spd
kts
Gust
kts
Height
m
Period
s
Dir
20/11:30pm ESE 9 19 - - - - 10 Cloudy - 20.7 1020.8 2.0
20/11:00pm ESE 7 13 - - - - 10 Partly cloudy - 20.6 1020.8 2.0
20/10:30pm ESE 7 13 - - - - 10 Partly cloudy - 20.7 1020.8 2.0
20/10:00pm ESE 9 16 - - - - 10 Partly cloudy - 20.4 1020.7 2.0
20/09:30pm ESE 7 14 - - - - 10 Partly cloudy - 20.6 1020.5 2.0
20/09:00pm ESE 7 17 - - - - 10 Partly cloudy - 19.9 1020.4 2.0
20/08:30pm SSW 5 11 - - - - 10 Cloudy Showers 19.6 1020.4 2.0
20/08:14pm ESE 9 28 - - - - 10 Partly cloudy - 20.0 1020.3 1.4
20/08:00pm SE 6 11 - - - - 10 Partly cloudy - 20.4 1020.0 1.0
20/07:30pm SE 7 12 - - - - 10 - - 19.9 1020.0 1.0
20/07:00pm ESE 3 9 - - - - 10 Partly cloudy - 19.3 1019.8 1.0
20/06:58pm ESE 4 7 - - - - 10 Partly cloudy - 19.2 1019.8 1.0
20/06:47pm ESE 8 22 - - - - 5 Partly cloudy - 19.8 1019.8 1.0
20/06:30pm SE 6 11 - - - - 10 Partly cloudy - 20.8 1019.7 0.4
20/06:00pm SE 5 9 - - - - 10 Partly cloudy - 20.4 1019.5 0.4
20/05:30pm SE 8 16 - - - - 10 Cloudy Showers 19.6 1019.1 0.4
20/05:00pm ESE 7 13 - - - - 10 Partly cloudy - 21.2 1018.7 0.2
20/04:30pm ESE 5 13 - - - - 10 Partly cloudy - 21.7 1018.0 0.2
20/04:00pm E 8 18 - - - - 10 Cloudy - 22.2 1017.5 0.2
20/03:30pm SE 7 14 - - - - 10 Cloudy - 22.6 1017.4 0.2
20/03:00pm SSW 5 10 - - - - 10 Partly cloudy - 22.8 1017.6 0.2
20/02:30pm S 6 11 - - - - 30 Partly cloudy Fine 23.4 1017.6 0.2
20/02:00pm SW 3 5 - - - - 10 Partly cloudy - 22.8 1017.5 0.2
20/01:30pm SE 7 10 - - - - 10 Partly cloudy - 22.3 1017.5 0.2
20/01:00pm SE 5 13 - - - - 10 Partly cloudy - 22.4 1017.5 0.2
20/12:30pm ESE 5 10 - - - - 10 Partly cloudy - 22.3 1017.5 0.2
20/12:00pm SE 6 9 - - - - 10 Partly cloudy - 22.4 1017.9 0.2
20/11:30am SE 6 10 - - - - 10 Cloudy - 23.1 1017.9 0.2
20/11:00am SE 5 10 - - - - 10 Partly cloudy - 22.1 1018.2 0.2
20/10:30am SE 7 12 - - - - 10 Partly cloudy - 23.2 1018.3 0.2
20/10:00am SE 10 15 - - - - 10 Partly cloudy - 21.7 1018.5 0.2
20/09:30am E 6 12 - - - - 10 Cloudy - 20.9 1018.5 0.2
20/09:00am ESE 9 14 - - - - 10 Partly cloudy - 20.9 1018.4 0.0
20/08:41am SE 9 15 - - - - 10 Partly cloudy - 19.1 1018.6 0.0
20/08:30am SE 9 14 - - - - 7 Mostly cloudy Drizzle 18.9 1018.6 2.4
20/08:18am SE 11 18 - - - - 5 Partly cloudy - 20.2 1018.5 1.2
20/08:00am SE 5 13 - - - - 10 Cloudy - 20.7 1018.0 0.8
20/07:30am ENE 5 7 - - - - 10 Partly cloudy - 20.1 1017.9 0.8
20/07:21am NE 6 8 - - - - 10 Partly cloudy - 19.9 1017.8 0.8
20/07:07am - 7 10 - - - - 5 Partly cloudy - 19.4 1017.8 0.6
20/07:00am - 7 11 - - - - 10 Partly cloudy - 19.8 1017.7 0.0
20/06:30am - 6 8 - - - - 10 Partly cloudy - 20.6 1017.1 0.0
20/06:00am - 5 9 - - - - 10 Partly cloudy - 20.0 1016.8 0.0
20/05:30am - 2 5 - - - - 25 Partly cloudy Fine 19.1 1016.6 0.0
20/05:00am - 3 7 - - - - 10 Partly cloudy - 19.9 1016.3 0.0
20/04:30am - 4 6 - - - - 10 Cloudy - 19.8 1016.0 0.0
20/04:00am - 6 9 - - - - 10 Partly cloudy - 19.6 1016.0 0.0
20/03:30am - 8 12 - - - - 10 Partly cloudy - 19.3 1015.9 0.0
20/03:00am CALM 0 2 - - - - 10 - - 15.5 1015.6 0.0
20/02:30am CALM 0 3 - - - - 10 - - 16.0 1015.6 0.0
20/02:00am CALM 0 0 - - - - 10 - - 16.1 1015.9 0.0
20/01:30am CALM 0 0 - - - - 10 - - 16.6 1016.1 0.0

Other formats

Comma delimited format used in spreadsheet applications
http://www.bom.gov.au/fwo/IDN60701/IDN60701.94995.axf

JavaScript Object Notation format (JSON) in row-major order
http://www.bom.gov.au/fwo/IDN60701/IDN60701.94995.json

Data quality

Most of these data are generated automatically and are frequently updated. Quality checks on data are not normally performed. It is possible for incorrect values to appear. Refer to information at About Latest Weather Observations and please check the disclaimer before using these data.